createdAt,value
2018-04-24T00:01:52.660Z,10.63
2018-04-24T00:04:22.132Z,10.62
2018-04-24T00:06:50.647Z,10.60
2018-04-24T00:09:18.994Z,10.58
2018-04-24T00:11:48.149Z,10.56
2018-04-24T00:14:16.725Z,10.51
2018-04-24T00:16:45.091Z,10.44
2018-04-24T00:19:13.592Z,10.42
2018-04-24T00:21:42.359Z,10.44
2018-04-24T00:24:11.038Z,10.44
2018-04-24T00:26:39.421Z,10.43
2018-04-24T00:29:07.771Z,10.43
2018-04-24T00:31:36.152Z,10.39
2018-04-24T00:34:04.679Z,10.35
2018-04-24T00:36:33.142Z,10.31
2018-04-24T00:39:02.095Z,10.29
2018-04-24T00:41:30.519Z,10.26
2018-04-24T00:43:59.800Z,10.23
2018-04-24T00:46:28.225Z,10.22
2018-04-24T00:48:56.857Z,10.21
2018-04-24T00:51:25.472Z,10.20
2018-04-24T00:53:54.374Z,10.20
2018-04-24T00:56:23.741Z,10.16
2018-04-24T00:58:52.191Z,10.11
2018-04-24T01:01:20.951Z,10.07
2018-04-24T01:03:50.219Z,10.05
2018-04-24T01:06:18.696Z,10.08
2018-04-24T01:08:47.185Z,10.07
2018-04-24T01:11:15.570Z,10.06
2018-04-24T01:13:43.907Z,10.04
2018-04-24T01:16:12.255Z,10.03
2018-04-24T01:18:40.604Z,10.04
2018-04-24T01:21:09.112Z,10.03
2018-04-24T01:23:37.556Z,9.99
2018-04-24T01:26:06.259Z,9.95
2018-04-24T01:28:34.750Z,9.92
2018-04-24T01:31:03.151Z,9.90
2018-04-24T01:33:32.414Z,9.87
2018-04-24T01:36:00.759Z,9.84
2018-04-24T01:38:29.419Z,9.82
2018-04-24T01:40:58.238Z,9.81
2018-04-24T01:43:26.591Z,9.82
2018-04-24T01:45:55.093Z,9.80
2018-04-24T01:48:24.555Z,9.81
2018-04-24T01:50:53.596Z,9.81
2018-04-24T01:53:22.562Z,9.79
2018-04-24T01:55:51.119Z,9.78
2018-04-24T01:58:19.547Z,9.77
2018-04-24T02:00:48.129Z,9.78
2018-04-24T02:03:16.504Z,9.77
2018-04-24T02:05:44.839Z,9.74
2018-04-24T02:08:13.450Z,9.70
2018-04-24T02:10:42.207Z,9.66
2018-04-24T02:13:10.539Z,9.64
2018-04-24T02:15:38.912Z,9.63
2018-04-24T02:18:07.263Z,9.62
2018-04-24T02:20:36.018Z,9.63
2018-04-24T02:23:04.642Z,9.63
2018-04-24T02:25:33.085Z,9.60
2018-04-24T02:28:01.993Z,9.60
2018-04-24T02:30:30.811Z,9.59
2018-04-24T02:32:59.336Z,9.57
2018-04-24T02:35:27.691Z,9.55
2018-04-24T02:37:56.036Z,9.52
2018-04-24T02:40:24.973Z,9.48
2018-04-24T02:42:54.069Z,9.45
2018-04-24T02:45:22.941Z,9.43
2018-04-24T02:47:51.509Z,9.40
2018-04-24T02:50:20.536Z,9.37
2018-04-24T02:52:48.918Z,9.37
2018-04-24T02:55:17.256Z,9.38
2018-04-24T02:57:45.600Z,9.39
2018-04-24T03:00:13.948Z,9.41
2018-04-24T03:02:42.287Z,9.41
2018-04-24T03:05:11.093Z,9.40
2018-04-24T03:07:39.687Z,9.38
2018-04-24T03:10:08.202Z,9.36
2018-04-24T03:12:36.578Z,9.33
2018-04-24T03:15:05.061Z,9.31
2018-04-24T03:17:33.432Z,9.29
2018-04-24T03:20:02.347Z,9.29
2018-04-24T03:22:30.741Z,9.30
2018-04-24T03:24:59.142Z,9.31
2018-04-24T03:27:27.649Z,9.29
2018-04-24T03:29:56.139Z,9.29
2018-04-24T03:32:24.685Z,9.29
2018-04-24T03:34:53.201Z,9.30
2018-04-24T03:37:21.701Z,9.27
2018-04-24T03:39:50.095Z,9.29
2018-04-24T03:42:18.686Z,9.30
2018-04-24T03:44:47.232Z,9.30
2018-04-24T03:47:15.916Z,9.33
2018-04-24T03:49:44.348Z,9.36
2018-04-24T03:52:12.697Z,9.40
2018-04-24T03:54:41.371Z,9.39
2018-04-24T03:57:09.792Z,9.39
2018-04-24T03:59:39.079Z,9.42
2018-04-24T04:02:07.605Z,9.47
2018-04-24T04:04:36.249Z,9.56
2018-04-24T04:07:05.022Z,9.61
2018-04-24T04:09:33.741Z,9.65
2018-04-24T04:12:03.323Z,9.68
2018-04-24T04:14:33.567Z,9.66
2018-04-24T04:17:14.509Z,9.68
2018-04-24T04:19:54.923Z,9.67
2018-04-24T04:22:35.346Z,9.70
2018-04-24T04:25:04.097Z,9.86
2018-04-24T04:27:33.421Z,9.96
2018-04-24T04:30:02.047Z,10.02
2018-04-24T04:32:30.492Z,10.01
2018-04-24T04:34:59.421Z,10.01
2018-04-24T04:37:27.920Z,10.03
2018-04-24T04:39:56.292Z,10.05
2018-04-24T04:42:24.915Z,10.08
2018-04-24T04:44:53.664Z,10.10
2018-04-24T04:47:22.428Z,10.15
2018-04-24T04:49:51.243Z,10.17
2018-04-24T04:52:19.981Z,10.21
2018-04-24T04:54:48.659Z,10.26
2018-04-24T04:57:17.687Z,10.27
2018-04-24T04:59:46.108Z,10.28
2018-04-24T05:02:14.694Z,10.30
2018-04-24T05:04:43.044Z,10.33
2018-04-24T05:07:11.403Z,10.38
2018-04-24T05:09:39.934Z,10.39
2018-04-24T05:12:08.303Z,10.42
2018-04-24T05:14:37.794Z,10.43
2018-04-24T05:17:06.223Z,10.42
2018-04-24T05:19:34.628Z,10.44
2018-04-24T05:22:03.064Z,10.43
2018-04-24T05:24:31.491Z,10.43
2018-04-24T05:27:00.144Z,10.44
2018-04-24T05:29:28.516Z,10.46
2018-04-24T05:31:56.992Z,10.44
2018-04-24T05:34:25.412Z,10.50
2018-04-24T05:36:54.363Z,10.53
2018-04-24T05:39:22.712Z,10.56
2018-04-24T05:41:51.543Z,10.64
2018-04-24T05:44:20.391Z,10.74
2018-04-24T05:46:50.380Z,10.77
2018-04-24T05:49:18.800Z,10.79
2018-04-24T05:51:47.144Z,10.82
2018-04-24T05:54:15.502Z,10.83
2018-04-24T05:56:44.484Z,10.88
2018-04-24T05:59:13.465Z,10.93
2018-04-24T06:01:41.821Z,10.97
2018-04-24T06:04:11.274Z,10.99
2018-04-24T06:06:39.950Z,10.96
2018-04-24T06:09:08.803Z,10.97
2018-04-24T06:11:37.936Z,11.02
2018-04-24T06:14:06.379Z,11.02
2018-04-24T06:16:34.912Z,11.05
2018-04-24T06:19:03.425Z,11.05
2018-04-24T06:21:31.877Z,11.05
2018-04-24T06:24:00.455Z,11.07
2018-04-24T06:26:28.877Z,11.10
2018-04-24T06:28:58.529Z,11.17
2018-04-24T06:31:26.893Z,11.26
2018-04-24T06:33:56.260Z,11.40
2018-04-24T06:36:24.683Z,11.59
2018-04-24T06:38:53.376Z,11.76
2018-04-24T06:41:22.038Z,11.88
2018-04-24T06:43:51.799Z,11.93
2018-04-24T06:46:20.145Z,11.92
2018-04-24T06:48:48.824Z,11.89
2018-04-24T06:51:18.149Z,11.94
2018-04-24T06:53:47.000Z,12.02
2018-04-24T06:56:15.361Z,12.07
2018-04-24T06:58:44.735Z,12.12
2018-04-24T07:01:13.201Z,12.09
2018-04-24T07:03:42.291Z,12.10
2018-04-24T07:06:11.333Z,12.12
2018-04-24T07:08:39.787Z,12.12
2018-04-24T07:11:08.875Z,12.10
2018-04-24T07:13:37.533Z,12.11
2018-04-24T07:16:06.851Z,12.19
2018-04-24T07:18:36.082Z,12.25
2018-04-24T07:21:04.432Z,12.37
2018-04-24T07:23:33.515Z,12.43
2018-04-24T07:26:01.955Z,12.41
2018-04-24T07:28:30.850Z,12.35
2018-04-24T07:30:59.671Z,12.30
2018-04-24T07:33:28.149Z,12.28
2018-04-24T07:35:56.631Z,12.23
2018-04-24T07:38:25.221Z,12.16
2018-04-24T07:40:54.449Z,12.18
2018-04-24T07:43:22.855Z,12.30
2018-04-24T07:45:51.267Z,12.32
2018-04-24T07:48:19.908Z,12.33
2018-04-24T07:50:48.316Z,12.35
2018-04-24T07:53:16.769Z,12.33
2018-04-24T07:55:45.799Z,12.32
2018-04-24T07:58:14.191Z,12.38
2018-04-24T08:00:42.628Z,12.48
2018-04-24T08:03:11.313Z,12.57
2018-04-24T08:05:39.668Z,12.76
2018-04-24T08:08:08.060Z,12.94
2018-04-24T08:10:36.453Z,12.99
2018-04-24T08:13:04.802Z,13.10
2018-04-24T08:15:33.185Z,13.12
2018-04-24T08:18:01.637Z,13.10
2018-04-24T08:20:30.012Z,13.03
2018-04-24T08:22:58.410Z,12.95
2018-04-24T08:25:26.890Z,12.94
2018-04-24T08:27:55.236Z,12.99
2018-04-24T08:30:24.952Z,13.05
2018-04-24T08:32:54.415Z,13.14
2018-04-24T08:35:23.185Z,13.14
2018-04-24T08:37:52.066Z,13.11
2018-04-24T08:40:20.469Z,13.15
2018-04-24T08:42:48.845Z,13.18
2018-04-24T08:45:17.585Z,13.14
2018-04-24T08:47:47.996Z,13.20
2018-04-24T08:50:16.966Z,13.32
2018-04-24T08:52:45.343Z,13.41
2018-04-24T08:55:13.766Z,13.39
2018-04-24T08:57:42.095Z,13.35
2018-04-24T09:00:10.450Z,13.34
2018-04-24T09:02:39.055Z,13.30
2018-04-24T09:05:07.413Z,13.30
2018-04-24T09:07:35.752Z,13.28
2018-04-24T09:10:04.119Z,13.34
2018-04-24T09:12:32.474Z,13.46
2018-04-24T09:15:01.109Z,13.59
2018-04-24T09:17:30.189Z,13.71
2018-04-24T09:19:58.749Z,13.86
2018-04-24T09:22:27.712Z,13.90
2018-04-24T09:24:56.118Z,13.88
2018-04-24T09:27:24.788Z,13.94
2018-04-24T09:29:58.857Z,14.04
2018-04-24T09:32:27.449Z,14.15
2018-04-24T09:34:56.495Z,14.17
2018-04-24T09:37:24.855Z,14.18
2018-04-24T09:39:53.546Z,14.32
2018-04-24T09:42:22.525Z,14.50
2018-04-24T09:44:50.990Z,14.64
2018-04-24T09:47:19.433Z,14.71
2018-04-24T09:49:48.675Z,14.82
2018-04-24T09:52:17.087Z,14.69
2018-04-24T09:54:45.435Z,14.61
2018-04-24T09:57:13.813Z,14.63
2018-04-24T09:59:42.241Z,14.54
2018-04-24T10:02:11.179Z,14.55
2018-04-24T10:04:39.488Z,14.56
2018-04-24T10:07:08.299Z,14.61
2018-04-24T10:09:36.974Z,14.76
2018-04-24T10:12:06.371Z,15.02
2018-04-24T10:14:34.813Z,15.26
2018-04-24T10:17:03.604Z,15.38
2018-04-24T10:19:33.078Z,15.38
2018-04-24T10:22:02.304Z,15.34
2018-04-24T10:24:30.712Z,15.29
2018-04-24T10:26:59.430Z,15.29
2018-04-24T10:29:27.817Z,15.35
2018-04-24T10:31:56.578Z,15.44
2018-04-24T10:34:25.309Z,15.55
2018-04-24T10:36:53.927Z,15.57
2018-04-24T10:39:22.283Z,15.55
2018-04-24T10:41:50.640Z,15.51
2018-04-24T10:44:20.487Z,15.65
2018-04-24T10:46:48.849Z,15.81
2018-04-24T10:49:18.368Z,16.14
2018-04-24T10:51:46.808Z,16.37
2018-04-24T10:54:15.962Z,16.34
2018-04-24T10:56:44.370Z,16.28
2018-04-24T10:59:13.208Z,16.24
2018-04-24T11:01:41.568Z,16.10
2018-04-24T11:04:11.171Z,16.09
2018-04-24T11:06:40.503Z,16.17
2018-04-24T11:09:09.101Z,16.52
2018-04-24T11:11:37.463Z,16.95
2018-04-24T11:14:06.145Z,17.42
2018-04-24T11:16:34.962Z,17.48
2018-04-24T11:19:03.579Z,17.35
2018-04-24T11:21:32.097Z,17.43
2018-04-24T11:24:00.452Z,17.36
2018-04-24T11:26:29.122Z,17.26
2018-04-24T11:28:57.485Z,17.25
2018-04-24T11:31:25.835Z,17.34
2018-04-24T11:33:54.190Z,17.34
2018-04-24T11:36:22.970Z,17.32
2018-04-24T11:38:51.441Z,17.33
2018-04-24T11:41:20.140Z,17.51
2018-04-24T11:43:49.225Z,17.74
2018-04-24T11:46:17.551Z,17.86
2018-04-24T11:48:45.943Z,17.78
2018-04-24T11:51:14.920Z,17.74
2018-04-24T11:53:43.380Z,17.83
2018-04-24T11:56:12.004Z,17.62
2018-04-24T11:58:40.354Z,17.72
2018-04-24T12:01:09.427Z,17.59
2018-04-24T12:03:38.513Z,17.44
2018-04-24T12:06:07.321Z,17.27
2018-04-24T12:08:36.065Z,17.11
2018-04-24T12:11:04.721Z,17.06
2018-04-24T12:13:34.610Z,17.15
2018-04-24T12:16:03.293Z,17.36
2018-04-24T12:18:31.793Z,17.49
2018-04-24T12:21:00.218Z,17.56
2018-04-24T12:23:29.000Z,17.51
2018-04-24T12:25:58.423Z,17.59
2018-04-24T12:28:26.794Z,17.61
2018-04-24T12:30:55.526Z,17.58
2018-04-24T12:33:24.507Z,17.36
2018-04-24T12:35:53.260Z,17.22
2018-04-24T12:38:21.838Z,17.16
2018-04-24T12:40:50.341Z,17.17
2018-04-24T12:43:26.825Z,17.26
2018-04-24T12:45:56.060Z,17.23
2018-04-24T12:48:24.412Z,17.21
2018-04-24T12:50:52.905Z,17.21
2018-04-24T12:53:21.298Z,17.22
2018-04-24T12:55:49.912Z,17.24
2018-04-24T12:58:18.365Z,17.30
2018-04-24T13:00:48.479Z,17.27
2018-04-24T13:03:17.202Z,17.21
2018-04-24T13:05:45.957Z,17.09
2018-04-24T13:08:14.766Z,17.00
2018-04-24T13:10:43.221Z,16.82
2018-04-24T13:13:11.693Z,16.62
2018-04-24T13:15:40.122Z,16.49
2018-04-24T13:18:08.648Z,16.39
2018-04-24T13:20:37.589Z,16.34
2018-04-24T13:23:06.032Z,16.30
2018-04-24T13:25:34.445Z,16.31
2018-04-24T13:28:02.847Z,16.33
2018-04-24T13:30:31.967Z,16.28
2018-04-24T13:33:00.739Z,16.25
2018-04-24T13:35:29.494Z,16.24
2018-04-24T13:37:57.894Z,16.26
2018-04-24T13:40:26.262Z,16.26
2018-04-24T13:42:55.086Z,16.30
2018-04-24T13:45:23.521Z,16.33
2018-04-24T13:47:51.884Z,16.37
2018-04-24T13:50:20.288Z,16.36
2018-04-24T13:52:48.645Z,16.28
2018-04-24T13:55:17.253Z,16.27
2018-04-24T13:57:46.046Z,16.33
2018-04-24T14:00:14.407Z,16.38
2018-04-24T14:02:43.036Z,16.43
2018-04-24T14:05:11.399Z,16.42
2018-04-24T14:07:39.848Z,16.35
2018-04-24T14:10:08.252Z,16.30
2018-04-24T14:12:36.645Z,16.24
2018-04-24T14:15:05.429Z,16.10
2018-04-24T14:17:33.799Z,15.97
2018-04-24T14:20:02.182Z,15.84
2018-04-24T14:22:30.549Z,15.77
2018-04-24T14:24:58.902Z,15.75
2018-04-24T14:27:27.292Z,15.74
2018-04-24T14:29:55.680Z,15.69
2018-04-24T14:32:24.411Z,15.78
2018-04-24T14:34:52.923Z,15.96
2018-04-24T14:37:21.365Z,16.15
2018-04-24T14:39:49.727Z,16.29
2018-04-24T14:42:23.119Z,16.43
2018-04-24T14:44:54.891Z,16.58
2018-04-24T14:47:23.546Z,16.70
2018-04-24T14:49:52.943Z,16.69
2018-04-24T14:52:21.677Z,16.58
2018-04-24T14:54:50.696Z,16.54
2018-04-24T14:57:19.152Z,16.46
2018-04-24T14:59:47.511Z,16.69
2018-04-24T15:02:17.074Z,16.74
2018-04-24T15:04:45.567Z,16.73
2018-04-24T15:07:14.073Z,16.64
2018-04-24T15:09:44.924Z,16.45
2018-04-24T15:12:13.459Z,16.34
2018-04-24T15:14:41.957Z,16.28
2018-04-24T15:17:10.718Z,16.17
2018-04-24T15:19:39.223Z,16.09
2018-04-24T15:22:07.670Z,16.10
2018-04-24T15:24:36.029Z,16.06
2018-04-24T15:27:04.674Z,16.02
2018-04-24T15:29:33.366Z,15.96
2018-04-24T15:32:01.945Z,15.91
2018-04-24T15:34:35.414Z,15.89
2018-04-24T15:37:05.783Z,15.88
2018-04-24T15:39:34.166Z,15.85
2018-04-24T15:42:02.528Z,15.83
2018-04-24T15:44:30.903Z,15.81
2018-04-24T15:46:59.462Z,15.79
2018-04-24T15:49:27.915Z,15.78
2018-04-24T15:51:56.255Z,15.81
2018-04-24T15:54:24.692Z,15.76
2018-04-24T15:56:53.053Z,15.74
2018-04-24T15:59:21.877Z,15.85
2018-04-24T16:01:50.231Z,16.10
2018-04-24T16:04:18.950Z,16.29
2018-04-24T16:06:47.346Z,16.36
2018-04-24T16:09:15.711Z,16.33
2018-04-24T16:11:44.777Z,16.26
2018-04-24T16:14:13.424Z,16.16
2018-04-24T16:16:41.809Z,16.13
2018-04-24T16:19:10.193Z,16.20
2018-04-24T16:21:38.631Z,16.15
2018-04-24T16:24:07.037Z,16.03
2018-04-24T16:26:35.387Z,15.94
2018-04-24T16:29:03.794Z,15.84
2018-04-24T16:31:32.487Z,15.76
2018-04-24T16:34:01.190Z,15.73
2018-04-24T16:36:29.851Z,15.68
2018-04-24T16:38:58.218Z,15.62
2018-04-24T16:41:26.724Z,15.62
2018-04-24T16:43:55.151Z,15.61
2018-04-24T16:46:24.078Z,15.64
2018-04-24T16:48:53.634Z,15.70
2018-04-24T16:51:22.375Z,15.76
2018-04-24T16:53:50.745Z,15.73
2018-04-24T16:56:19.103Z,15.74
2018-04-24T16:58:47.472Z,15.74
2018-04-24T17:01:15.815Z,15.68
2018-04-24T17:03:44.583Z,15.62
2018-04-24T17:06:13.282Z,15.56
2018-04-24T17:08:41.666Z,15.49
2018-04-24T17:11:10.033Z,15.42
2018-04-24T17:13:38.819Z,15.37
2018-04-24T17:16:07.507Z,15.30
2018-04-24T17:18:36.448Z,15.22
2018-04-24T17:21:07.501Z,15.17
2018-04-24T17:23:35.927Z,15.12
2018-04-24T17:26:04.287Z,15.02
2018-04-24T17:28:32.972Z,14.97
2018-04-24T17:31:01.359Z,14.93
2018-04-24T17:33:29.754Z,14.88
2018-04-24T17:35:58.161Z,14.82
2018-04-24T17:38:26.851Z,14.79
2018-04-24T17:40:55.223Z,14.76
2018-04-24T17:43:24.896Z,14.72
2018-04-24T17:45:53.270Z,14.66
2018-04-24T17:48:21.732Z,14.62
2018-04-24T17:50:50.243Z,14.57
2018-04-24T17:53:18.613Z,14.48
2018-04-24T17:55:47.001Z,14.43
2018-04-24T17:58:15.360Z,14.58
2018-04-24T18:00:44.056Z,14.73
2018-04-24T18:03:12.709Z,14.74
2018-04-24T18:05:41.161Z,14.67
2018-04-24T18:08:09.554Z,14.40
2018-04-24T18:10:38.134Z,14.22
2018-04-24T18:13:07.221Z,14.10
2018-04-24T18:15:35.584Z,13.99
2018-04-24T18:18:03.944Z,13.96
2018-04-24T18:20:34.455Z,13.91
2018-04-24T18:23:04.130Z,13.86
2018-04-24T18:25:34.160Z,13.82
2018-04-24T18:28:05.245Z,13.78
2018-04-24T18:30:34.305Z,13.75
2018-04-24T18:33:02.669Z,13.74
2018-04-24T18:35:31.063Z,13.72
2018-04-24T18:37:59.757Z,13.67
2018-04-24T18:40:28.156Z,13.65
2018-04-24T18:42:56.524Z,13.56
2018-04-24T18:45:24.914Z,13.50
2018-04-24T18:47:54.440Z,13.47
2018-04-24T18:50:22.826Z,13.43
2018-04-24T18:55:50.872Z,13.32
2018-04-24T18:58:19.302Z,13.24
2018-04-24T19:00:47.661Z,13.18
2018-04-24T19:03:16.133Z,13.12
2018-04-24T19:05:44.825Z,13.06
2018-04-24T19:08:13.760Z,13.02
2018-04-24T19:10:42.804Z,12.98
2018-04-24T19:13:11.218Z,12.93
2018-04-24T19:15:39.751Z,12.88
2018-04-24T19:18:08.464Z,12.83
2018-04-24T19:20:37.798Z,12.78
2018-04-24T19:23:06.349Z,12.73
2018-04-24T19:25:40.486Z,12.70
2018-04-24T19:28:08.913Z,12.65
2018-04-24T19:30:37.321Z,12.60
2018-04-24T19:33:05.730Z,12.57
2018-04-24T19:35:34.209Z,12.54
2018-04-24T19:38:05.945Z,12.48
2018-04-24T19:43:41.084Z,12.41
2018-04-24T19:46:10.844Z,12.39
2018-04-24T19:48:52.210Z,12.35
2018-04-24T19:51:20.630Z,12.31
2018-04-24T19:53:49.210Z,12.26
2018-04-24T19:56:18.775Z,12.22
2018-04-24T19:58:47.214Z,12.21
2018-04-24T20:01:15.564Z,12.19
2018-04-24T20:03:44.614Z,12.17
2018-04-24T20:06:13.835Z,12.15
2018-04-24T20:08:54.384Z,12.12
2018-04-24T20:11:23.510Z,12.09
2018-04-24T20:13:51.976Z,12.04
2018-04-24T20:16:20.671Z,12.01
2018-04-24T20:18:49.092Z,11.99
2018-04-24T20:21:18.039Z,11.95
2018-04-24T20:23:47.068Z,11.93
2018-04-24T20:26:15.436Z,11.92
2018-04-24T20:28:43.866Z,11.92
2018-04-24T20:31:12.411Z,11.90
2018-04-24T20:33:40.783Z,11.90
2018-04-24T20:36:09.145Z,11.86
2018-04-24T20:38:37.561Z,11.86
2018-04-24T20:41:06.005Z,11.83
2018-04-24T20:43:34.423Z,11.83
2018-04-24T20:46:02.792Z,11.85
2018-04-24T20:48:31.144Z,11.82
2018-04-24T20:50:59.576Z,11.82
2018-04-24T20:53:28.221Z,11.80
2018-04-24T20:55:56.992Z,11.79
2018-04-24T20:58:25.371Z,11.79
2018-04-24T21:00:53.878Z,11.79
2018-04-24T21:03:22.253Z,11.78
2018-04-24T21:05:50.949Z,11.78
2018-04-24T21:08:19.385Z,11.78
2018-04-24T21:10:48.019Z,11.75
2018-04-24T21:13:16.611Z,11.73
2018-04-24T21:15:49.008Z,11.72
2018-04-24T21:18:18.528Z,11.70
2018-04-24T21:20:46.908Z,11.69
2018-04-24T21:23:15.268Z,11.68
2018-04-24T21:25:43.713Z,11.65
2018-04-24T21:28:12.240Z,11.63
2018-04-24T21:30:41.238Z,11.61
2018-04-24T21:33:18.330Z,11.60
2018-04-24T21:35:46.757Z,11.60
2018-04-24T21:38:15.241Z,11.60
2018-04-24T21:43:22.964Z,11.57
2018-04-24T21:45:53.984Z,11.54
2018-04-24T21:48:22.773Z,11.54
2018-04-24T21:50:55.482Z,11.53
2018-04-24T21:53:23.840Z,11.52
2018-04-24T21:55:59.034Z,11.48
2018-04-24T21:58:27.577Z,11.47
2018-04-24T22:00:55.990Z,11.45
2018-04-24T22:03:24.375Z,11.45
2018-04-24T22:05:55.733Z,11.43
2018-04-24T22:08:24.520Z,11.43
2018-04-24T22:10:58.551Z,11.41
2018-04-24T22:13:33.837Z,11.38
2018-04-24T22:16:02.365Z,11.35
2018-04-24T22:18:30.838Z,11.33
2018-04-24T22:21:00.335Z,11.33
2018-04-24T22:23:28.852Z,11.33
2018-04-24T22:25:57.277Z,11.31
2018-04-24T22:28:26.878Z,11.29
2018-04-24T22:30:55.339Z,11.28
2018-04-24T22:33:23.736Z,11.25
2018-04-24T22:35:52.254Z,11.25
2018-04-24T22:38:20.652Z,11.25
2018-04-24T22:40:48.996Z,11.25
2018-04-24T22:43:18.630Z,11.26
2018-04-24T22:45:46.999Z,11.26
2018-04-24T22:48:16.631Z,11.23
2018-04-24T22:50:45.365Z,11.21
2018-04-24T22:53:14.184Z,11.22
2018-04-24T22:55:42.960Z,11.22
2018-04-24T22:58:11.629Z,11.19
2018-04-24T23:00:40.188Z,11.21
2018-04-24T23:03:10.615Z,11.21
2018-04-24T23:05:38.976Z,11.21
2018-04-24T23:08:07.331Z,11.19
2018-04-24T23:10:48.110Z,11.18
2018-04-24T23:13:29.323Z,11.17
2018-04-24T23:16:09.600Z,11.19
2018-04-24T23:18:51.865Z,11.17
2018-04-24T23:21:20.538Z,11.13
2018-04-24T23:23:48.959Z,11.12
2018-04-24T23:26:17.588Z,11.13
2018-04-24T23:28:48.179Z,11.14
2018-04-24T23:31:17.270Z,11.13
2018-04-24T23:33:46.337Z,11.13
2018-04-24T23:36:15.330Z,11.16
2018-04-24T23:38:43.819Z,11.21
2018-04-24T23:41:13.361Z,11.28
2018-04-24T23:43:42.217Z,11.32
2018-04-24T23:46:12.652Z,11.35
2018-04-24T23:48:41.495Z,11.40
2018-04-24T23:51:09.953Z,11.44
2018-04-24T23:53:38.962Z,11.48
2018-04-24T23:56:07.540Z,11.52
2018-04-24T23:58:36.737Z,11.56
